sensor_id;sensor_type;location;lat;lon;timestamp;P1;durP1;ratioP1;P2;durP2;ratioP2
35993;SDS011;22066;54.274;18.578;2023-02-28T00:01:41;50.33;;;17.63;;
35993;SDS011;22066;54.274;18.578;2023-02-28T00:04:08;61.40;;;22.23;;
35993;SDS011;22066;54.274;18.578;2023-02-28T00:06:34;51.47;;;19.00;;
35993;SDS011;22066;54.274;18.578;2023-02-28T00:09:00;52.03;;;18.57;;
35993;SDS011;22066;54.274;18.578;2023-02-28T00:11:26;53.47;;;18.07;;
35993;SDS011;22066;54.274;18.578;2023-02-28T00:13:52;59.63;;;20.40;;
35993;SDS011;22066;54.274;18.578;2023-02-28T00:16:19;57.97;;;20.20;;
35993;SDS011;22066;54.274;18.578;2023-02-28T00:18:45;54.60;;;21.30;;
35993;SDS011;22066;54.274;18.578;2023-02-28T00:21:12;58.37;;;22.07;;
35993;SDS011;22066;54.274;18.578;2023-02-28T00:23:38;69.67;;;21.83;;
35993;SDS011;22066;54.274;18.578;2023-02-28T00:26:05;62.37;;;20.77;;
35993;SDS011;22066;54.274;18.578;2023-02-28T00:28:31;62.13;;;23.40;;
35993;SDS011;22066;54.274;18.578;2023-02-28T00:30:57;63.03;;;23.97;;
35993;SDS011;22066;54.274;18.578;2023-02-28T00:33:24;68.15;;;23.35;;
35993;SDS011;22066;54.274;18.578;2023-02-28T00:35:50;60.17;;;22.17;;
35993;SDS011;22066;54.274;18.578;2023-02-28T00:38:16;62.23;;;23.70;;
35993;SDS011;22066;54.274;18.578;2023-02-28T00:40:43;59.10;;;21.50;;
35993;SDS011;22066;54.274;18.578;2023-02-28T00:43:10;69.55;;;22.70;;
35993;SDS011;22066;54.274;18.578;2023-02-28T00:45:36;60.43;;;21.43;;
35993;SDS011;22066;54.274;18.578;2023-02-28T00:48:02;63.33;;;23.20;;
35993;SDS011;22066;54.274;18.578;2023-02-28T00:50:29;68.60;;;23.37;;
35993;SDS011;22066;54.274;18.578;2023-02-28T00:52:55;70.53;;;24.23;;
35993;SDS011;22066;54.274;18.578;2023-02-28T00:55:21;61.37;;;24.07;;
35993;SDS011;22066;54.274;18.578;2023-02-28T00:57:47;73.57;;;23.27;;
35993;SDS011;22066;54.274;18.578;2023-02-28T01:00:13;76.67;;;24.13;;
35993;SDS011;22066;54.274;18.578;2023-02-28T01:02:39;73.57;;;25.33;;
35993;SDS011;22066;54.274;18.578;2023-02-28T01:05:05;57.47;;;22.10;;
35993;SDS011;22066;54.274;18.578;2023-02-28T01:07:31;69.00;;;24.63;;
35993;SDS011;22066;54.274;18.578;2023-02-28T01:09:57;74.20;;;22.93;;
35993;SDS011;22066;54.274;18.578;2023-02-28T01:12:23;56.63;;;21.37;;
35993;SDS011;22066;54.274;18.578;2023-02-28T01:14:49;49.27;;;19.77;;
35993;SDS011;22066;54.274;18.578;2023-02-28T01:17:15;62.97;;;21.07;;
35993;SDS011;22066;54.274;18.578;2023-02-28T01:19:41;54.10;;;21.03;;
35993;SDS011;22066;54.274;18.578;2023-02-28T01:22:07;49.07;;;20.70;;
35993;SDS011;22066;54.274;18.578;2023-02-28T01:24:33;58.40;;;21.07;;
35993;SDS011;22066;54.274;18.578;2023-02-28T01:26:59;64.37;;;22.87;;
35993;SDS011;22066;54.274;18.578;2023-02-28T01:29:25;67.17;;;22.63;;
35993;SDS011;22066;54.274;18.578;2023-02-28T01:31:51;72.00;;;23.43;;
35993;SDS011;22066;54.274;18.578;2023-02-28T01:34:18;58.03;;;22.03;;
35993;SDS011;22066;54.274;18.578;2023-02-28T01:36:46;67.13;;;22.83;;
35993;SDS011;22066;54.274;18.578;2023-02-28T01:39:12;66.53;;;24.10;;
35993;SDS011;22066;54.274;18.578;2023-02-28T01:41:39;59.13;;;21.60;;
35993;SDS011;22066;54.274;18.578;2023-02-28T01:46:51;61.43;;;21.77;;
35993;SDS011;22066;54.274;18.578;2023-02-28T01:49:18;58.30;;;20.60;;
35993;SDS011;22066;54.274;18.578;2023-02-28T01:51:54;60.07;;;22.03;;
35993;SDS011;22066;54.274;18.578;2023-02-28T01:54:22;70.20;;;23.60;;
35993;SDS011;22066;54.274;18.578;2023-02-28T01:56:51;61.93;;;20.13;;
35993;SDS011;22066;54.274;18.578;2023-02-28T01:59:27;63.20;;;20.53;;
35993;SDS011;22066;54.274;18.578;2023-02-28T02:01:55;61.23;;;21.17;;
35993;SDS011;22066;54.274;18.578;2023-02-28T02:04:22;64.57;;;20.50;;
35993;SDS011;22066;54.274;18.578;2023-02-28T02:06:49;66.75;;;20.60;;
35993;SDS011;22066;54.274;18.578;2023-02-28T02:09:15;54.57;;;19.47;;
35993;SDS011;22066;54.274;18.578;2023-02-28T02:11:42;54.43;;;17.10;;
35993;SDS011;22066;54.274;18.578;2023-02-28T02:27:32;60.65;;;18.88;;
35993;SDS011;22066;54.274;18.578;2023-02-28T02:30:27;40.27;;;15.73;;
35993;SDS011;22066;54.274;18.578;2023-02-28T02:43:16;45.73;;;14.77;;
35993;SDS011;22066;54.274;18.578;2023-02-28T02:46:18;45.97;;;16.50;;
35993;SDS011;22066;54.274;18.578;2023-02-28T02:48:36;37.77;;;16.10;;
35993;SDS011;22066;54.274;18.578;2023-02-28T02:51:05;38.42;;;15.00;;
35993;SDS011;22066;54.274;18.578;2023-02-28T02:53:37;47.37;;;16.50;;
35993;SDS011;22066;54.274;18.578;2023-02-28T02:56:06;42.93;;;17.07;;
35993;SDS011;22066;54.274;18.578;2023-02-28T02:58:35;42.27;;;15.27;;
35993;SDS011;22066;54.274;18.578;2023-02-28T03:01:07;45.20;;;15.97;;
35993;SDS011;22066;54.274;18.578;2023-02-28T03:03:34;40.72;;;15.15;;
35993;SDS011;22066;54.274;18.578;2023-02-28T03:06:01;43.43;;;15.63;;
35993;SDS011;22066;54.274;18.578;2023-02-28T03:08:28;38.07;;;15.03;;
35993;SDS011;22066;54.274;18.578;2023-02-28T03:10:58;40.67;;;14.40;;
35993;SDS011;22066;54.274;18.578;2023-02-28T03:18:54;46.13;;;14.57;;
35993;SDS011;22066;54.274;18.578;2023-02-28T03:21:34;46.37;;;17.07;;
35993;SDS011;22066;54.274;18.578;2023-02-28T03:26:30;44.50;;;16.77;;
35993;SDS011;22066;54.274;18.578;2023-02-28T03:29:05;45.07;;;14.43;;
35993;SDS011;22066;54.274;18.578;2023-02-28T03:31:41;46.73;;;16.37;;
35993;SDS011;22066;54.274;18.578;2023-02-28T03:36:37;47.70;;;15.70;;
35993;SDS011;22066;54.274;18.578;2023-02-28T03:39:09;46.83;;;16.87;;
35993;SDS011;22066;54.274;18.578;2023-02-28T03:41:48;39.10;;;16.33;;
35993;SDS011;22066;54.274;18.578;2023-02-28T03:47:16;46.57;;;16.60;;
35993;SDS011;22066;54.274;18.578;2023-02-28T03:49:46;49.83;;;14.68;;
35993;SDS011;22066;54.274;18.578;2023-02-28T03:52:14;47.40;;;16.60;;
35993;SDS011;22066;54.274;18.578;2023-02-28T03:54:42;44.53;;;15.77;;
35993;SDS011;22066;54.274;18.578;2023-02-28T03:59:49;40.97;;;14.10;;
35993;SDS011;22066;54.274;18.578;2023-02-28T04:02:19;41.07;;;13.93;;
35993;SDS011;22066;54.274;18.578;2023-02-28T04:04:45;49.20;;;15.50;;
35993;SDS011;22066;54.274;18.578;2023-02-28T04:07:13;39.40;;;15.48;;
35993;SDS011;22066;54.274;18.578;2023-02-28T04:09:39;48.63;;;16.47;;
35993;SDS011;22066;54.274;18.578;2023-02-28T04:12:05;46.63;;;14.53;;
35993;SDS011;22066;54.274;18.578;2023-02-28T04:14:31;41.13;;;14.93;;
35993;SDS011;22066;54.274;18.578;2023-02-28T04:16:57;46.20;;;15.07;;
35993;SDS011;22066;54.274;18.578;2023-02-28T04:19:23;44.50;;;14.43;;
35993;SDS011;22066;54.274;18.578;2023-02-28T04:21:50;58.33;;;17.80;;
35993;SDS011;22066;54.274;18.578;2023-02-28T04:24:17;42.93;;;14.63;;
35993;SDS011;22066;54.274;18.578;2023-02-28T04:26:48;32.08;;;12.88;;
35993;SDS011;22066;54.274;18.578;2023-02-28T04:29:18;43.13;;;13.33;;
35993;SDS011;22066;54.274;18.578;2023-02-28T04:31:45;43.37;;;14.23;;
35993;SDS011;22066;54.274;18.578;2023-02-28T04:34:11;38.43;;;15.00;;
35993;SDS011;22066;54.274;18.578;2023-02-28T04:36:37;45.87;;;14.80;;
35993;SDS011;22066;54.274;18.578;2023-02-28T04:39:03;32.17;;;13.70;;
35993;SDS011;22066;54.274;18.578;2023-02-28T04:41:29;39.30;;;16.00;;
35993;SDS011;22066;54.274;18.578;2023-02-28T04:43:55;32.60;;;12.67;;
35993;SDS011;22066;54.274;18.578;2023-02-28T04:46:22;29.73;;;11.60;;
35993;SDS011;22066;54.274;18.578;2023-02-28T04:48:48;51.03;;;15.27;;
35993;SDS011;22066;54.274;18.578;2023-02-28T04:51:15;42.00;;;14.80;;
35993;SDS011;22066;54.274;18.578;2023-02-28T04:53:41;36.97;;;14.33;;
35993;SDS011;22066;54.274;18.578;2023-02-28T04:56:09;36.50;;;11.70;;
35993;SDS011;22066;54.274;18.578;2023-02-28T04:58:36;47.45;;;12.80;;
35993;SDS011;22066;54.274;18.578;2023-02-28T05:01:03;40.80;;;13.70;;
35993;SDS011;22066;54.274;18.578;2023-02-28T05:03:38;45.07;;;13.47;;
35993;SDS011;22066;54.274;18.578;2023-02-28T05:06:06;36.15;;;12.35;;
35993;SDS011;22066;54.274;18.578;2023-02-28T05:08:32;31.53;;;12.33;;
35993;SDS011;22066;54.274;18.578;2023-02-28T05:10:58;50.73;;;15.13;;
35993;SDS011;22066;54.274;18.578;2023-02-28T05:13:26;29.53;;;10.40;;
35993;SDS011;22066;54.274;18.578;2023-02-28T05:15:52;46.67;;;14.13;;
35993;SDS011;22066;54.274;18.578;2023-02-28T05:18:18;35.80;;;11.43;;
35993;SDS011;22066;54.274;18.578;2023-02-28T05:20:44;30.27;;;11.23;;
35993;SDS011;22066;54.274;18.578;2023-02-28T05:23:11;32.90;;;11.07;;
35993;SDS011;22066;54.274;18.578;2023-02-28T05:25:38;28.27;;;9.82;;
35993;SDS011;22066;54.274;18.578;2023-02-28T05:28:04;29.43;;;11.60;;
35993;SDS011;22066;54.274;18.578;2023-02-28T05:30:30;28.87;;;10.47;;
35993;SDS011;22066;54.274;18.578;2023-02-28T05:32:56;36.73;;;13.37;;
35993;SDS011;22066;54.274;18.578;2023-02-28T05:35:23;27.77;;;9.63;;
35993;SDS011;22066;54.274;18.578;2023-02-28T05:37:49;32.97;;;10.77;;
35993;SDS011;22066;54.274;18.578;2023-02-28T05:40:16;27.80;;;11.00;;
35993;SDS011;22066;54.274;18.578;2023-02-28T05:42:42;25.00;;;9.43;;
35993;SDS011;22066;54.274;18.578;2023-02-28T05:45:08;34.77;;;10.47;;
35993;SDS011;22066;54.274;18.578;2023-02-28T05:47:35;29.40;;;11.93;;
35993;SDS011;22066;54.274;18.578;2023-02-28T05:50:01;26.67;;;10.63;;
35993;SDS011;22066;54.274;18.578;2023-02-28T05:52:27;32.60;;;11.10;;
35993;SDS011;22066;54.274;18.578;2023-02-28T05:54:55;15.48;;;7.00;;
35993;SDS011;22066;54.274;18.578;2023-02-28T05:57:21;27.53;;;9.83;;
35993;SDS011;22066;54.274;18.578;2023-02-28T05:59:47;27.03;;;11.07;;
35993;SDS011;22066;54.274;18.578;2023-02-28T06:02:14;25.70;;;10.00;;
35993;SDS011;22066;54.274;18.578;2023-02-28T06:04:40;35.73;;;10.30;;
35993;SDS011;22066;54.274;18.578;2023-02-28T06:07:07;27.37;;;9.73;;
35993;SDS011;22066;54.274;18.578;2023-02-28T06:09:33;32.97;;;10.03;;
35993;SDS011;22066;54.274;18.578;2023-02-28T06:12:00;28.63;;;11.17;;
35993;SDS011;22066;54.274;18.578;2023-02-28T06:14:28;29.00;;;10.03;;
35993;SDS011;22066;54.274;18.578;2023-02-28T06:16:56;18.60;;;8.75;;
35993;SDS011;22066;54.274;18.578;2023-02-28T06:19:22;31.03;;;11.10;;
35993;SDS011;22066;54.274;18.578;2023-02-28T06:21:50;28.05;;;12.45;;
35993;SDS011;22066;54.274;18.578;2023-02-28T06:24:18;27.13;;;11.57;;
35993;SDS011;22066;54.274;18.578;2023-02-28T06:26:44;27.53;;;10.67;;
35993;SDS011;22066;54.274;18.578;2023-02-28T06:29:13;38.63;;;11.90;;
35993;SDS011;22066;54.274;18.578;2023-02-28T06:31:43;32.27;;;12.83;;
35993;SDS011;22066;54.274;18.578;2023-02-28T06:34:10;34.90;;;12.77;;
35993;SDS011;22066;54.274;18.578;2023-02-28T06:36:40;43.43;;;13.33;;
35993;SDS011;22066;54.274;18.578;2023-02-28T06:39:06;44.87;;;14.73;;
35993;SDS011;22066;54.274;18.578;2023-02-28T06:41:33;46.70;;;16.93;;
35993;SDS011;22066;54.274;18.578;2023-02-28T06:44:03;56.03;;;19.77;;
35993;SDS011;22066;54.274;18.578;2023-02-28T06:46:30;66.68;;;22.25;;
35993;SDS011;22066;54.274;18.578;2023-02-28T06:48:57;63.73;;;21.93;;
35993;SDS011;22066;54.274;18.578;2023-02-28T06:51:23;81.77;;;25.47;;
35993;SDS011;22066;54.274;18.578;2023-02-28T06:53:49;79.60;;;27.83;;
35993;SDS011;22066;54.274;18.578;2023-02-28T06:56:16;78.87;;;26.97;;
35993;SDS011;22066;54.274;18.578;2023-02-28T06:58:45;91.63;;;30.40;;
35993;SDS011;22066;54.274;18.578;2023-02-28T07:01:12;111.90;;;39.20;;
35993;SDS011;22066;54.274;18.578;2023-02-28T07:03:39;121.83;;;42.30;;
35993;SDS011;22066;54.274;18.578;2023-02-28T07:06:05;116.97;;;40.87;;
35993;SDS011;22066;54.274;18.578;2023-02-28T07:08:31;75.40;;;29.93;;
35993;SDS011;22066;54.274;18.578;2023-02-28T07:10:57;51.07;;;19.53;;
35993;SDS011;22066;54.274;18.578;2023-02-28T07:13:24;32.80;;;12.47;;
35993;SDS011;22066;54.274;18.578;2023-02-28T07:15:57;31.57;;;12.13;;
35993;SDS011;22066;54.274;18.578;2023-02-28T07:18:23;36.07;;;12.17;;
35993;SDS011;22066;54.274;18.578;2023-02-28T07:20:51;27.33;;;11.53;;
35993;SDS011;22066;54.274;18.578;2023-02-28T07:23:17;31.67;;;10.93;;
35993;SDS011;22066;54.274;18.578;2023-02-28T07:25:43;29.37;;;12.37;;
35993;SDS011;22066;54.274;18.578;2023-02-28T07:28:10;27.87;;;10.83;;
35993;SDS011;22066;54.274;18.578;2023-02-28T07:30:36;21.43;;;9.90;;
35993;SDS011;22066;54.274;18.578;2023-02-28T07:33:02;22.60;;;8.80;;
35993;SDS011;22066;54.274;18.578;2023-02-28T07:35:29;28.73;;;10.03;;
35993;SDS011;22066;54.274;18.578;2023-02-28T07:37:55;22.43;;;9.53;;
35993;SDS011;22066;54.274;18.578;2023-02-28T07:40:22;21.17;;;8.45;;
35993;SDS011;22066;54.274;18.578;2023-02-28T07:42:48;18.70;;;9.18;;
35993;SDS011;22066;54.274;18.578;2023-02-28T07:45:14;21.17;;;8.70;;
35993;SDS011;22066;54.274;18.578;2023-02-28T07:47:41;19.55;;;7.93;;
35993;SDS011;22066;54.274;18.578;2023-02-28T07:50:08;21.25;;;8.25;;
35993;SDS011;22066;54.274;18.578;2023-02-28T07:52:35;22.50;;;8.68;;
35993;SDS011;22066;54.274;18.578;2023-02-28T07:55:02;16.98;;;7.28;;
35993;SDS011;22066;54.274;18.578;2023-02-28T07:57:28;18.15;;;7.40;;
35993;SDS011;22066;54.274;18.578;2023-02-28T07:59:54;15.70;;;7.30;;
35993;SDS011;22066;54.274;18.578;2023-02-28T08:02:20;16.70;;;7.63;;
35993;SDS011;22066;54.274;18.578;2023-02-28T08:04:46;17.60;;;8.40;;
35993;SDS011;22066;54.274;18.578;2023-02-28T08:07:13;16.13;;;6.90;;
35993;SDS011;22066;54.274;18.578;2023-02-28T08:09:39;16.55;;;7.30;;
35993;SDS011;22066;54.274;18.578;2023-02-28T08:12:06;17.70;;;7.30;;
35993;SDS011;22066;54.274;18.578;2023-02-28T08:14:32;17.45;;;7.55;;
35993;SDS011;22066;54.274;18.578;2023-02-28T08:16:58;14.88;;;6.20;;
35993;SDS011;22066;54.274;18.578;2023-02-28T08:19:24;16.13;;;6.78;;
35993;SDS011;22066;54.274;18.578;2023-02-28T08:21:50;15.65;;;6.60;;
35993;SDS011;22066;54.274;18.578;2023-02-28T08:24:16;13.85;;;5.82;;
35993;SDS011;22066;54.274;18.578;2023-02-28T08:26:42;14.30;;;6.70;;
35993;SDS011;22066;54.274;18.578;2023-02-28T08:29:08;16.13;;;7.03;;
35993;SDS011;22066;54.274;18.578;2023-02-28T08:31:34;15.38;;;6.93;;
35993;SDS011;22066;54.274;18.578;2023-02-28T08:34:07;13.80;;;5.85;;
35993;SDS011;22066;54.274;18.578;2023-02-28T08:36:33;12.77;;;5.05;;
35993;SDS011;22066;54.274;18.578;2023-02-28T08:39:00;13.25;;;6.72;;
35993;SDS011;22066;54.274;18.578;2023-02-28T08:41:26;12.55;;;5.40;;
35993;SDS011;22066;54.274;18.578;2023-02-28T08:43:52;11.23;;;3.47;;
35993;SDS011;22066;54.274;18.578;2023-02-28T08:46:19;9.20;;;4.55;;
35993;SDS011;22066;54.274;18.578;2023-02-28T08:48:45;11.55;;;4.18;;
35993;SDS011;22066;54.274;18.578;2023-02-28T08:51:14;7.43;;;3.10;;
35993;SDS011;22066;54.274;18.578;2023-02-28T08:53:47;7.90;;;3.10;;
35993;SDS011;22066;54.274;18.578;2023-02-28T08:56:16;16.50;;;5.00;;
35993;SDS011;22066;54.274;18.578;2023-02-28T08:58:43;8.18;;;2.97;;
35993;SDS011;22066;54.274;18.578;2023-02-28T09:01:10;10.07;;;3.65;;
35993;SDS011;22066;54.274;18.578;2023-02-28T09:03:37;5.40;;;2.35;;
35993;SDS011;22066;54.274;18.578;2023-02-28T09:06:03;5.97;;;2.50;;
35993;SDS011;22066;54.274;18.578;2023-02-28T09:08:30;9.52;;;2.55;;
35993;SDS011;22066;54.274;18.578;2023-02-28T09:10:56;6.22;;;2.38;;
35993;SDS011;22066;54.274;18.578;2023-02-28T09:13:26;8.75;;;3.17;;
35993;SDS011;22066;54.274;18.578;2023-02-28T09:15:52;8.20;;;3.38;;
35993;SDS011;22066;54.274;18.578;2023-02-28T09:18:19;10.65;;;4.18;;
35993;SDS011;22066;54.274;18.578;2023-02-28T09:20:45;8.63;;;3.58;;
35993;SDS011;22066;54.274;18.578;2023-02-28T09:23:12;9.93;;;4.03;;
35993;SDS011;22066;54.274;18.578;2023-02-28T09:25:44;10.25;;;3.60;;
35993;SDS011;22066;54.274;18.578;2023-02-28T09:28:10;6.63;;;2.90;;
35993;SDS011;22066;54.274;18.578;2023-02-28T09:30:36;15.35;;;6.63;;
35993;SDS011;22066;54.274;18.578;2023-02-28T09:33:02;5.60;;;2.55;;
35993;SDS011;22066;54.274;18.578;2023-02-28T09:35:29;4.32;;;1.55;;
35993;SDS011;22066;54.274;18.578;2023-02-28T09:37:55;5.25;;;2.13;;
35993;SDS011;22066;54.274;18.578;2023-02-28T09:40:23;5.28;;;1.75;;
35993;SDS011;22066;54.274;18.578;2023-02-28T09:42:50;4.40;;;2.03;;
35993;SDS011;22066;54.274;18.578;2023-02-28T09:45:24;5.15;;;1.75;;
35993;SDS011;22066;54.274;18.578;2023-02-28T09:47:53;3.92;;;1.60;;
35993;SDS011;22066;54.274;18.578;2023-02-28T09:52:46;6.95;;;2.13;;
35993;SDS011;22066;54.274;18.578;2023-02-28T09:57:46;4.50;;;2.20;;
35993;SDS011;22066;54.274;18.578;2023-02-28T10:00:19;10.30;;;3.28;;
35993;SDS011;22066;54.274;18.578;2023-02-28T10:05:20;5.15;;;2.10;;
35993;SDS011;22066;54.274;18.578;2023-02-28T10:10:29;6.75;;;2.55;;
35993;SDS011;22066;54.274;18.578;2023-02-28T10:12:59;6.32;;;2.42;;
35993;SDS011;22066;54.274;18.578;2023-02-28T10:15:27;6.13;;;2.72;;
35993;SDS011;22066;54.274;18.578;2023-02-28T10:17:56;9.90;;;4.35;;
35993;SDS011;22066;54.274;18.578;2023-02-28T10:20:24;7.25;;;3.03;;
35993;SDS011;22066;54.274;18.578;2023-02-28T10:23:02;15.23;;;6.45;;
35993;SDS011;22066;54.274;18.578;2023-02-28T10:25:33;11.88;;;4.75;;
35993;SDS011;22066;54.274;18.578;2023-02-28T10:30:36;9.55;;;4.90;;
35993;SDS011;22066;54.274;18.578;2023-02-28T10:33:03;11.98;;;4.80;;
35993;SDS011;22066;54.274;18.578;2023-02-28T10:35:29;10.55;;;5.22;;
35993;SDS011;22066;54.274;18.578;2023-02-28T10:37:56;10.55;;;5.22;;
35993;SDS011;22066;54.274;18.578;2023-02-28T10:40:26;9.98;;;4.75;;
35993;SDS011;22066;54.274;18.578;2023-02-28T10:43:05;8.98;;;4.97;;
35993;SDS011;22066;54.274;18.578;2023-02-28T10:45:51;10.40;;;4.90;;
35993;SDS011;22066;54.274;18.578;2023-02-28T10:50:53;9.93;;;4.50;;
35993;SDS011;22066;54.274;18.578;2023-02-28T10:58:47;10.30;;;4.22;;
35993;SDS011;22066;54.274;18.578;2023-02-28T11:01:18;12.85;;;4.82;;
35993;SDS011;22066;54.274;18.578;2023-02-28T11:03:45;7.07;;;3.50;;
35993;SDS011;22066;54.274;18.578;2023-02-28T11:08:44;10.13;;;4.57;;
35993;SDS011;22066;54.274;18.578;2023-02-28T11:11:10;8.93;;;4.10;;
35993;SDS011;22066;54.274;18.578;2023-02-28T11:13:37;7.88;;;3.97;;
35993;SDS011;22066;54.274;18.578;2023-02-28T11:16:06;7.47;;;3.78;;
35993;SDS011;22066;54.274;18.578;2023-02-28T11:18:39;6.65;;;3.40;;
35993;SDS011;22066;54.274;18.578;2023-02-28T11:21:06;6.57;;;3.40;;
35993;SDS011;22066;54.274;18.578;2023-02-28T11:23:34;10.77;;;4.03;;
35993;SDS011;22066;54.274;18.578;2023-02-28T11:26:02;7.53;;;3.22;;
35993;SDS011;22066;54.274;18.578;2023-02-28T11:38:42;8.10;;;3.95;;
35993;SDS011;22066;54.274;18.578;2023-02-28T11:49:01;6.68;;;3.63;;
35993;SDS011;22066;54.274;18.578;2023-02-28T11:51:53;8.60;;;4.30;;
35993;SDS011;22066;54.274;18.578;2023-02-28T11:56:52;9.07;;;3.72;;
35993;SDS011;22066;54.274;18.578;2023-02-28T11:59:35;7.95;;;3.70;;
35993;SDS011;22066;54.274;18.578;2023-02-28T12:09:56;7.88;;;3.58;;
35993;SDS011;22066;54.274;18.578;2023-02-28T12:27:47;7.32;;;3.33;;
35993;SDS011;22066;54.274;18.578;2023-02-28T12:32:44;6.75;;;3.53;;
35993;SDS011;22066;54.274;18.578;2023-02-28T12:35:12;7.15;;;3.55;;
35993;SDS011;22066;54.274;18.578;2023-02-28T12:37:50;6.93;;;3.53;;
35993;SDS011;22066;54.274;18.578;2023-02-28T12:40:19;6.97;;;3.38;;
35993;SDS011;22066;54.274;18.578;2023-02-28T12:42:47;6.50;;;3.15;;
35993;SDS011;22066;54.274;18.578;2023-02-28T12:45:17;5.93;;;3.00;;
35993;SDS011;22066;54.274;18.578;2023-02-28T12:47:44;9.68;;;3.85;;
35993;SDS011;22066;54.274;18.578;2023-02-28T12:50:11;8.68;;;3.55;;
35993;SDS011;22066;54.274;18.578;2023-02-28T12:55:05;8.60;;;3.67;;
35993;SDS011;22066;54.274;18.578;2023-02-28T13:00:18;9.27;;;3.53;;
35993;SDS011;22066;54.274;18.578;2023-02-28T13:13:05;5.80;;;3.28;;
35993;SDS011;22066;54.274;18.578;2023-02-28T13:15:31;7.63;;;3.38;;
35993;SDS011;22066;54.274;18.578;2023-02-28T13:18:03;6.53;;;3.03;;
35993;SDS011;22066;54.274;18.578;2023-02-28T13:20:38;7.22;;;3.10;;
35993;SDS011;22066;54.274;18.578;2023-02-28T13:26:17;6.05;;;3.35;;
35993;SDS011;22066;54.274;18.578;2023-02-28T13:28:57;11.60;;;3.30;;
35993;SDS011;22066;54.274;18.578;2023-02-28T13:31:23;7.53;;;3.22;;
35993;SDS011;22066;54.274;18.578;2023-02-28T13:36:31;7.30;;;3.13;;
35993;SDS011;22066;54.274;18.578;2023-02-28T13:38:58;6.20;;;2.97;;
35993;SDS011;22066;54.274;18.578;2023-02-28T13:52:20;6.28;;;3.20;;
35993;SDS011;22066;54.274;18.578;2023-02-28T13:57:28;10.18;;;4.30;;
35993;SDS011;22066;54.274;18.578;2023-02-28T14:07:37;7.95;;;3.67;;
35993;SDS011;22066;54.274;18.578;2023-02-28T14:10:04;8.02;;;3.50;;
35993;SDS011;22066;54.274;18.578;2023-02-28T14:17:50;8.57;;;3.75;;
35993;SDS011;22066;54.274;18.578;2023-02-28T14:20:16;9.55;;;3.97;;
35993;SDS011;22066;54.274;18.578;2023-02-28T14:22:46;7.10;;;3.42;;
35993;SDS011;22066;54.274;18.578;2023-02-28T14:28:05;7.68;;;3.30;;
35993;SDS011;22066;54.274;18.578;2023-02-28T14:35:58;10.85;;;4.38;;
35993;SDS011;22066;54.274;18.578;2023-02-28T14:38:27;10.05;;;3.47;;
35993;SDS011;22066;54.274;18.578;2023-02-28T14:40:54;15.82;;;5.07;;
35993;SDS011;22066;54.274;18.578;2023-02-28T14:43:25;14.98;;;5.25;;
35993;SDS011;22066;54.274;18.578;2023-02-28T14:45:52;14.88;;;4.70;;
35993;SDS011;22066;54.274;18.578;2023-02-28T14:50:51;10.52;;;3.65;;
35993;SDS011;22066;54.274;18.578;2023-02-28T14:53:18;9.70;;;3.67;;
35993;SDS011;22066;54.274;18.578;2023-02-28T14:55:46;8.90;;;3.30;;
35993;SDS011;22066;54.274;18.578;2023-02-28T14:58:17;7.73;;;3.27;;
35993;SDS011;22066;54.274;18.578;2023-02-28T15:00:46;10.65;;;3.60;;
35993;SDS011;22066;54.274;18.578;2023-02-28T15:03:20;7.63;;;3.22;;
35993;SDS011;22066;54.274;18.578;2023-02-28T15:05:54;8.35;;;3.55;;
35993;SDS011;22066;54.274;18.578;2023-02-28T15:08:21;7.75;;;3.30;;
35993;SDS011;22066;54.274;18.578;2023-02-28T15:10:51;6.32;;;3.13;;
35993;SDS011;22066;54.274;18.578;2023-02-28T15:13:18;8.02;;;3.38;;
35993;SDS011;22066;54.274;18.578;2023-02-28T15:15:46;11.13;;;4.40;;
35993;SDS011;22066;54.274;18.578;2023-02-28T15:20:39;12.73;;;4.22;;
35993;SDS011;22066;54.274;18.578;2023-02-28T15:23:07;13.13;;;3.72;;
35993;SDS011;22066;54.274;18.578;2023-02-28T15:25:33;13.88;;;4.05;;
35993;SDS011;22066;54.274;18.578;2023-02-28T15:27:59;8.18;;;2.85;;
35993;SDS011;22066;54.274;18.578;2023-02-28T15:30:27;7.78;;;2.72;;
35993;SDS011;22066;54.274;18.578;2023-02-28T15:35:38;10.45;;;2.70;;
35993;SDS011;22066;54.274;18.578;2023-02-28T15:43:18;9.85;;;2.53;;
35993;SDS011;22066;54.274;18.578;2023-02-28T15:45:49;8.98;;;2.20;;
35993;SDS011;22066;54.274;18.578;2023-02-28T15:50:42;7.40;;;2.97;;
35993;SDS011;22066;54.274;18.578;2023-02-28T15:53:12;10.70;;;3.13;;
35993;SDS011;22066;54.274;18.578;2023-02-28T15:55:39;10.67;;;3.37;;
35993;SDS011;22066;54.274;18.578;2023-02-28T15:58:08;6.70;;;2.30;;
35993;SDS011;22066;54.274;18.578;2023-02-28T16:00:38;7.37;;;2.90;;
35993;SDS011;22066;54.274;18.578;2023-02-28T16:03:26;9.63;;;3.20;;
35993;SDS011;22066;54.274;18.578;2023-02-28T16:08:54;7.13;;;3.07;;
35993;SDS011;22066;54.274;18.578;2023-02-28T16:11:20;8.90;;;3.07;;
35993;SDS011;22066;54.274;18.578;2023-02-28T16:13:47;8.97;;;3.07;;
35993;SDS011;22066;54.274;18.578;2023-02-28T16:16:17;8.43;;;2.90;;
35993;SDS011;22066;54.274;18.578;2023-02-28T16:18:44;9.47;;;2.97;;
35993;SDS011;22066;54.274;18.578;2023-02-28T16:21:10;9.50;;;3.00;;
35993;SDS011;22066;54.274;18.578;2023-02-28T16:23:36;9.60;;;3.97;;
35993;SDS011;22066;54.274;18.578;2023-02-28T16:26:03;12.47;;;3.80;;
35993;SDS011;22066;54.274;18.578;2023-02-28T16:28:30;13.00;;;4.20;;
35993;SDS011;22066;54.274;18.578;2023-02-28T16:30:57;10.13;;;3.58;;
35993;SDS011;22066;54.274;18.578;2023-02-28T16:33:25;9.40;;;3.20;;
35993;SDS011;22066;54.274;18.578;2023-02-28T16:35:51;10.23;;;3.87;;
35993;SDS011;22066;54.274;18.578;2023-02-28T16:38:17;24.73;;;9.13;;
35993;SDS011;22066;54.274;18.578;2023-02-28T16:40:44;21.97;;;7.80;;
35993;SDS011;22066;54.274;18.578;2023-02-28T16:43:15;16.50;;;6.60;;
35993;SDS011;22066;54.274;18.578;2023-02-28T16:45:42;14.83;;;7.07;;
35993;SDS011;22066;54.274;18.578;2023-02-28T16:48:10;23.13;;;7.80;;
35993;SDS011;22066;54.274;18.578;2023-02-28T16:50:38;22.93;;;7.90;;
35993;SDS011;22066;54.274;18.578;2023-02-28T16:53:04;21.10;;;7.27;;
35993;SDS011;22066;54.274;18.578;2023-02-28T16:55:30;22.40;;;7.63;;
35993;SDS011;22066;54.274;18.578;2023-02-28T16:57:57;21.43;;;6.60;;
35993;SDS011;22066;54.274;18.578;2023-02-28T17:00:24;26.63;;;7.53;;
35993;SDS011;22066;54.274;18.578;2023-02-28T17:02:50;20.17;;;7.00;;
35993;SDS011;22066;54.274;18.578;2023-02-28T17:05:16;19.87;;;6.97;;
35993;SDS011;22066;54.274;18.578;2023-02-28T17:07:43;26.77;;;8.60;;
35993;SDS011;22066;54.274;18.578;2023-02-28T17:10:20;25.43;;;6.87;;
35993;SDS011;22066;54.274;18.578;2023-02-28T17:12:46;23.07;;;7.77;;
35993;SDS011;22066;54.274;18.578;2023-02-28T17:15:13;34.63;;;9.60;;
35993;SDS011;22066;54.274;18.578;2023-02-28T17:17:40;26.47;;;7.73;;
35993;SDS011;22066;54.274;18.578;2023-02-28T17:20:06;34.67;;;8.40;;
35993;SDS011;22066;54.274;18.578;2023-02-28T17:22:33;25.33;;;8.10;;
35993;SDS011;22066;54.274;18.578;2023-02-28T17:24:59;26.30;;;7.80;;
35993;SDS011;22066;54.274;18.578;2023-02-28T17:27:25;24.77;;;8.63;;
35993;SDS011;22066;54.274;18.578;2023-02-28T17:29:51;26.63;;;8.50;;